Time;durP1;ratioP1;P1;durP2;ratioP2;P2;SDS_P1;SDS_P2;PMS_P1;PMS_P2;Temp;Humidity;BMP_temperature;BMP_pressure;BME280_temperature;BME280_humidity;BME280_pressure;Samples;Min_cycle;Max_cycle;Signal;HPM_P1;HPM_P2
2023/01/16 00:02:20;;;;;;;6.00;3.00;;;;;;;8.45;67.70;101827.66;106698;1269;25350;-49
2023/01/16 00:04:50;;;;;;;7.50;3.10;;;;;;;8.47;67.52;101825.60;106694;1270;25366;-49
2023/01/16 00:07:17;;;;;;;4.50;2.80;;;;;;;8.49;67.60;101823.02;106594;1273;25647;-50
2023/01/16 00:09:44;;;;;;;4.60;3.50;;;;;;;8.51;67.57;101819.22;107082;1274;22764;-51
2023/01/16 00:12:11;;;;;;;5.90;3.40;;;;;;;8.53;67.50;101817.14;107153;1274;25497;-51
2023/01/16 00:14:39;;;;;;;6.70;3.50;;;;;;;8.54;67.50;101817.15;107072;1274;25389;-52
2023/01/16 00:17:06;;;;;;;5.00;3.40;;;;;;;8.55;67.51;101815.95;107106;1274;25318;-51
2023/01/16 00:19:35;;;;;;;3.70;3.20;;;;;;;8.57;67.46;101814.23;106972;1269;25348;-51
2023/01/16 00:22:02;;;;;;;6.50;3.40;;;;;;;8.59;67.52;101811.80;107090;1274;24319;-51
2023/01/16 00:24:29;;;;;;;6.40;3.60;;;;;;;8.59;67.55;101807.48;107142;1274;25337;-51
2023/01/16 00:26:56;;;;;;;8.30;3.60;;;;;;;8.60;67.56;101801.77;107061;1271;25389;-51
2023/01/16 00:29:24;;;;;;;4.10;3.20;;;;;;;8.61;67.50;101794.51;107228;1266;25479;-51
2023/01/16 00:31:51;;;;;;;4.30;3.80;;;;;;;8.62;67.43;101793.48;106389;1267;1003706;-50
2023/01/16 00:34:18;;;;;;;6.70;3.90;;;;;;;8.65;67.48;101797.81;106820;1271;25546;-50
2023/01/16 00:36:45;;;;;;;5.80;3.70;;;;;;;8.67;67.35;101795.21;107130;1266;25375;-51
2023/01/16 00:39:12;;;;;;;6.30;4.10;;;;;;;8.68;67.37;101790.04;107164;1267;25373;-50
2023/01/16 00:41:40;;;;;;;7.70;3.60;;;;;;;8.68;67.30;101787.61;106344;1266;1003629;-52
2023/01/16 00:44:07;;;;;;;4.40;3.50;;;;;;;8.70;67.25;101786.23;107067;1270;25578;-51
2023/01/16 00:46:34;;;;;;;7.00;3.70;;;;;;;8.71;67.15;101783.63;107046;1266;25350;-49
2023/01/16 00:49:02;;;;;;;5.50;3.90;;;;;;;8.72;67.16;101781.21;107117;1268;25346;-50
2023/01/16 00:51:29;;;;;;;7.00;3.90;;;;;;;8.74;67.05;101778.11;107097;1266;26706;-50
2023/01/16 00:53:56;;;;;;;4.80;3.80;;;;;;;8.75;67.06;101777.07;106807;1267;25414;-50
2023/01/16 00:56:23;;;;;;;9.20;3.70;;;;;;;8.76;67.03;101777.41;107043;1274;22531;-49
2023/01/16 00:58:50;;;;;;;8.00;3.50;;;;;;;8.77;67.02;101778.46;106845;1269;25322;-49
2023/01/16 01:01:17;;;;;;;5.50;3.30;;;;;;;8.77;67.06;101780.88;107130;1266;25463;-50
2023/01/16 07:38:16;;;;;;;6.60;4.30;;;;;;;8.45;77.31;101606.86;104962;1304;22570;-58
2023/01/16 07:40:44;;;;;;;10.70;4.90;;;;;;;8.56;76.48;101611.52;106223;1280;25381;-57
2023/01/16 07:43:11;;;;;;;14.60;4.80;;;;;;;8.65;75.76;101612.23;106242;1253;1003365;-58
2023/01/16 07:45:38;;;;;;;6.50;4.50;;;;;;;8.74;75.22;101612.91;106910;1269;204848;-58
2023/01/16 07:48:05;;;;;;;8.30;3.90;;;;;;;8.81;74.67;101608.05;106760;1256;25373;-57
2023/01/16 07:50:32;;;;;;;14.20;4.40;;;;;;;8.89;74.03;101615.84;107055;1266;25373;-58
2023/01/16 07:52:59;;;;;;;8.60;4.20;;;;;;;8.96;73.48;101616.34;106998;1270;25391;-58
2023/01/16 07:55:26;;;;;;;10.50;5.00;;;;;;;9.06;73.15;101620.14;106913;1269;26574;-57
2023/01/16 07:57:53;;;;;;;8.90;4.20;;;;;;;9.13;72.61;101618.04;107116;1267;25345;-57
2023/01/16 08:00:21;;;;;;;9.60;4.20;;;;;;;9.20;72.27;101618.20;107153;1266;23484;-58
2023/01/16 08:02:49;;;;;;;10.30;4.40;;;;;;;9.26;71.90;101620.10;107024;1258;23911;-57
2023/01/16 08:05:17;;;;;;;8.20;3.90;;;;;;;9.32;71.54;101616.27;106808;1270;22663;-57
2023/01/16 08:07:46;;;;;;;6.50;3.30;;;;;;;9.37;71.17;101618.14;107102;1268;25334;-57
2023/01/16 08:10:13;;;;;;;9.70;4.80;;;;;;;9.41;70.72;101612.08;107188;1267;22632;-58
2023/01/16 08:12:41;;;;;;;5.60;3.40;;;;;;;9.45;70.29;101611.90;107175;1267;23898;-58
2023/01/16 08:15:09;;;;;;;7.20;4.40;;;;;;;9.48;70.11;101611.01;107149;1267;25345;-57
2023/01/16 08:17:39;;;;;;;12.00;4.20;;;;;;;9.51;69.72;101613.77;107092;1266;24221;-58
2023/01/16 08:20:07;;;;;;;5.80;3.70;;;;;;;9.54;69.46;101609.26;107124;1266;22577;-57
2023/01/16 08:22:34;;;;;;;9.50;4.20;;;;;;;9.56;69.27;101615.14;107183;1266;22756;-58
2023/01/16 08:25:01;;;;;;;8.60;4.10;;;;;;;9.58;69.12;101613.40;106975;1266;26643;-59
2023/01/16 08:27:29;;;;;;;9.20;3.90;;;;;;;9.60;68.88;101615.48;107075;1266;25445;-58
2023/01/16 08:29:56;;;;;;;8.10;4.10;;;;;;;9.61;68.63;101611.66;107139;1266;22527;-58
2023/01/16 08:32:23;;;;;;;6.50;3.40;;;;;;;9.61;68.32;101606.63;107039;1266;25374;-58
2023/01/16 08:34:51;;;;;;;5.20;3.10;;;;;;;9.62;68.14;101601.09;106968;1267;25408;-58
2023/01/16 08:37:18;;;;;;;7.60;3.90;;;;;;;9.63;67.85;101601.59;107212;1266;25407;-58
2023/01/16 08:39:45;;;;;;;6.00;3.90;;;;;;;9.63;67.70;101595.70;107136;1266;23906;-58
2023/01/16 08:53:17;;;;;;;9.60;3.50;;;;;;;9.67;66.84;101581.84;106743;1268;22638;-58
2023/01/16 08:55:44;;;;;;;9.40;3.60;;;;;;;9.69;66.60;101585.13;106614;1274;22562;-58
2023/01/16 08:58:11;;;;;;;6.50;3.60;;;;;;;9.71;66.37;101581.98;106812;1267;25383;-58
2023/01/16 09:00:39;;;;;;;6.20;3.50;;;;;;;9.71;66.40;101576.80;106806;1267;25370;-58
2023/01/16 09:03:06;;;;;;;5.60;3.20;;;;;;;9.71;66.28;101576.79;106029;1267;1003833;-58
2023/01/16 09:05:34;;;;;;;7.00;3.80;;;;;;;9.72;66.43;101581.12;106698;1269;25417;-58
2023/01/16 09:08:01;;;;;;;8.90;4.70;;;;;;;9.73;66.46;101575.05;106571;1260;25427;-58
2023/01/16 09:10:29;;;;;;;5.90;3.90;;;;;;;9.74;66.33;101572.27;107130;1268;25457;-58
2023/01/16 09:15:44;;;;;;;7.30;3.70;;;;;;;9.75;65.91;101565.15;107138;1267;25425;-57
2023/01/16 09:18:11;;;;;;;7.70;3.50;;;;;;;9.75;65.95;101564.80;106395;1267;1003121;-56
2023/01/16 09:20:38;;;;;;;8.80;3.70;;;;;;;9.75;65.84;101563.61;107026;1271;24400;-57
2023/01/16 09:23:06;;;;;;;9.60;4.10;;;;;;;9.75;65.72;101563.60;107056;1267;26102;-57
2023/01/16 09:25:34;;;;;;;13.20;4.40;;;;;;;9.75;65.70;101558.91;107062;1268;22535;-56
2023/01/16 09:28:01;;;;;;;4.80;3.70;;;;;;;9.75;65.76;101560.30;107015;1269;25345;-56
2023/01/16 09:30:30;;;;;;;8.20;3.90;;;;;;;9.75;65.63;101559.09;107074;1267;25470;-55
2023/01/16 09:32:57;;;;;;;6.20;3.70;;;;;;;9.76;65.40;101558.41;106754;1267;25332;-59
2023/01/16 09:35:24;;;;;;;7.40;4.00;;;;;;;9.57;65.96;101560.74;107571;1267;22563;-58
2023/01/16 09:37:51;;;;;;;7.40;3.90;;;;;;;9.55;66.11;101559.54;107204;1268;25446;-56
2023/01/16 09:40:20;;;;;;;6.40;3.70;;;;;;;9.68;65.53;101553.59;107087;1263;25584;-56
2023/01/16 09:43:35;;;;;;;6.50;3.50;;;;;;;9.79;65.11;101545.91;107274;1260;24399;-56
2023/01/16 09:46:23;;;;;;;6.70;3.70;;;;;;;9.75;65.13;101539.33;106849;1267;25406;-56
2023/01/16 09:49:12;;;;;;;6.40;3.10;;;;;;;9.81;64.63;101535.31;107063;1267;24215;-56
2023/01/16 09:51:41;;;;;;;6.00;3.30;;;;;;;9.81;64.23;101530.46;106419;1275;25380;-58
2023/01/16 09:59:54;;;;;;;6.70;3.40;;;;;;;9.68;64.36;101526.04;106454;1281;24229;-59
2023/01/16 10:02:30;;;;;;;5.30;3.30;;;;;;;9.79;64.10;101520.95;106519;1276;25405;-56
2023/01/16 10:04:58;;;;;;;9.00;4.00;;;;;;;9.81;64.13;101521.98;106848;1274;25486;-57
2023/01/16 10:07:38;;;;;;;4.90;3.70;;;;;;;9.82;64.13;101520.41;106479;1277;25426;-57
2023/01/16 10:10:05;;;;;;;10.20;3.90;;;;;;;9.72;64.28;101517.70;106722;1274;25402;-57
2023/01/16 10:12:34;;;;;;;7.00;4.00;;;;;;;9.67;64.61;101508.38;106570;1269;25355;-57
2023/01/16 10:15:43;;;;;;;5.50;3.80;;;;;;;9.77;64.45;101507.80;106751;1267;25383;-56
2023/01/16 10:18:39;;;;;;;6.20;4.00;;;;;;;9.80;64.65;101501.19;106225;1280;24288;-57
2023/01/16 10:21:54;;;;;;;8.00;4.50;;;;;;;9.81;64.80;101501.88;106263;1278;25425;-57
2023/01/16 10:24:44;;;;;;;6.40;3.90;;;;;;;9.84;64.78;101501.34;105736;1286;23412;-57
2023/01/16 10:27:32;;;;;;;6.50;4.10;;;;;;;9.74;65.18;101498.30;105689;1286;25396;-57
2023/01/16 10:30:07;;;;;;;5.10;3.90;;;;;;;9.64;65.52;101497.48;105738;1286;25352;-57
2023/01/16 10:32:46;;;;;;;10.70;4.00;;;;;;;9.87;65.04;101492.83;105947;1283;23000;-57
2023/01/16 10:35:23;;;;;;;9.10;4.20;;;;;;;9.95;64.63;101496.06;105962;1284;25431;-57
2023/01/16 10:37:50;;;;;;;8.30;4.10;;;;;;;9.97;64.46;101487.55;106005;1283;25380;-57
2023/01/16 10:40:27;;;;;;;9.00;3.90;;;;;;;9.99;64.58;101486.14;105884;1283;24365;-57
2023/01/16 10:51:27;;;;;;;7.60;4.60;;;;;;;10.04;64.57;101463.91;105860;1282;22909;-57
2023/01/16 10:53:54;;;;;;;6.90;3.70;;;;;;;10.05;64.67;101460.62;106497;1276;22533;-57
2023/01/16 10:56:23;;;;;;;6.60;4.20;;;;;;;10.05;64.65;101456.11;106532;1275;25422;-57
2023/01/16 10:58:51;;;;;;;8.40;3.90;;;;;;;10.06;64.76;101449.86;106137;1280;25362;-57
2023/01/16 16:53:29;;;;;;;7.40;4.90;;;;;;;9.01;75.44;101191.48;104959;1288;22560;-58
2023/01/16 16:56:07;;;;;;;18.50;6.20;;;;;;;9.11;74.76;101190.71;105951;1281;24402;-59
2023/01/16 16:58:43;;;;;;;9.30;5.10;;;;;;;9.21;74.25;101198.94;105933;1282;22578;-58
2023/01/16 17:01:11;;;;;;;15.70;5.10;;;;;;;9.29;73.61;101208.20;105980;1275;230888;-59
2023/01/16 17:03:38;;;;;;;11.20;5.50;;;;;;;9.37;73.30;101207.44;105916;1284;22576;-60
2023/01/16 17:06:06;;;;;;;9.50;5.00;;;;;;;9.43;72.97;101210.16;105972;1275;26647;-58
2023/01/16 17:08:33;;;;;;;8.30;4.90;;;;;;;9.49;72.60;101216.14;106198;1275;22551;-57
2023/01/16 17:11:00;;;;;;;12.50;5.20;;;;;;;9.56;72.33;101216.95;106316;1275;25380;-57
2023/01/16 17:13:28;;;;;;;11.80;5.20;;;;;;;9.62;72.11;101210.29;106074;1281;25386;-57
2023/01/16 17:15:58;;;;;;;9.90;5.10;;;;;;;9.67;71.75;101204.55;107050;1267;22586;-57
2023/01/16 17:18:26;;;;;;;11.00;4.70;;;;;;;9.72;71.59;101201.52;107026;1267;23233;-59
2023/01/16 17:20:53;;;;;;;12.30;5.20;;;;;;;9.78;71.36;101197.83;106653;1270;22523;-58
2023/01/16 17:23:23;;;;;;;8.00;4.50;;;;;;;9.82;71.17;101198.11;106934;1275;25487;-57
2023/01/16 17:25:49;;;;;;;13.80;5.80;;;;;;;9.87;71.08;101194.43;106757;1276;25289;-57
2023/01/16 17:28:17;;;;;;;10.90;5.20;;;;;;;9.91;70.94;101197.49;106822;1269;25814;-57
2023/01/16 17:30:44;;;;;;;11.60;5.00;;;;;;;9.95;70.76;101196.92;107122;1268;23116;-57
2023/01/16 17:33:15;;;;;;;10.90;5.20;;;;;;;9.98;70.67;101194.45;107033;1267;25485;-57
2023/01/16 17:36:09;;;;;;;20.30;6.10;;;;;;;10.02;70.52;101198.05;106896;1268;24299;-57
2023/01/16 17:38:40;;;;;;;11.50;5.40;;;;;;;10.05;70.43;101194.55;106807;1274;26746;-57
2023/01/16 17:41:24;;;;;;;11.50;6.00;;;;;;;10.06;70.31;101194.36;107021;1267;22639;-57
2023/01/16 17:46:37;;;;;;;15.60;6.10;;;;;;;10.10;70.15;101186.17;106990;1275;22641;-57
2023/01/16 17:49:04;;;;;;;13.60;6.70;;;;;;;10.11;70.11;101182.90;107097;1267;25405;-57
2023/01/16 17:51:31;;;;;;;11.90;6.50;;;;;;;10.13;69.94;101176.11;107074;1267;22530;-57
2023/01/16 17:53:59;;;;;;;15.90;7.20;;;;;;;10.14;69.82;101181.29;107052;1267;25482;-57
2023/01/16 17:56:26;;;;;;;13.20;6.70;;;;;;;10.16;69.90;101177.80;107023;1267;25373;-57
2023/01/16 17:58:56;;;;;;;15.50;7.60;;;;;;;10.17;69.76;101176.39;107025;1269;25367;-58
2023/01/16 18:01:25;;;;;;;16.20;7.70;;;;;;;10.19;69.77;101180.02;106839;1269;25288;-57
2023/01/16 18:06:21;;;;;;;14.40;7.20;;;;;;;10.20;69.78;101180.88;106771;1268;25345;-59
2023/01/16 18:08:50;;;;;;;13.10;7.50;;;;;;;10.21;69.66;101175.30;106645;1273;24260;-56
2023/01/16 18:19:35;;;;;;;16.80;8.20;;;;;;;10.23;69.73;101162.95;106956;1252;25829;-59
2023/01/16 18:22:04;;;;;;;14.10;7.90;;;;;;;10.23;69.66;101159.48;106880;1269;24436;-56
2023/01/16 18:24:37;;;;;;;17.50;7.90;;;;;;;10.24;69.76;101154.81;107075;1255;25441;-56
2023/01/16 18:27:05;;;;;;;11.20;7.70;;;;;;;10.24;69.81;101152.89;107049;1268;25483;-56
2023/01/16 18:29:32;;;;;;;15.40;7.30;;;;;;;10.25;69.77;101146.98;106839;1268;25395;-56
2023/01/16 18:34:46;;;;;;;15.10;7.70;;;;;;;10.28;69.90;101146.94;107008;1268;25358;-57
2023/01/16 18:37:25;;;;;;;12.60;6.80;;;;;;;10.28;70.00;101144.33;107034;1268;22637;-56
2023/01/16 19:02:24;;;;;;;16.30;7.30;;;;;;;10.40;69.86;101112.08;106939;1268;22621;-57
2023/01/16 19:04:51;;;;;;;11.30;7.70;;;;;;;10.40;69.76;101117.27;106838;1269;22638;-57
2023/01/16 19:07:22;;;;;;;9.10;6.80;;;;;;;10.41;69.82;101111.70;106847;1268;25486;-57
2023/01/16 19:09:51;;;;;;;18.20;7.50;;;;;;;10.43;69.94;101109.95;107066;1269;25487;-58
2023/01/16 19:12:25;;;;;;;13.80;7.70;;;;;;;10.44;69.88;101108.90;106706;1269;22547;-59
2023/01/16 19:14:52;;;;;;;12.30;7.00;;;;;;;10.45;69.97;101105.23;106706;1268;24240;-60
2023/01/16 19:17:19;;;;;;;14.40;7.40;;;;;;;10.46;69.81;101102.79;106700;1268;25363;-57
2023/01/16 19:19:46;;;;;;;11.70;6.90;;;;;;;10.47;69.91;101102.59;106937;1271;25425;-57
2023/01/16 19:22:13;;;;;;;12.80;7.50;;;;;;;10.48;69.97;101095.98;106870;1269;25338;-57
2023/01/16 19:24:40;;;;;;;17.60;8.20;;;;;;;10.49;69.93;101091.29;106022;1267;1003838;-57
2023/01/16 19:27:08;;;;;;;17.30;7.00;;;;;;;10.49;70.02;101091.30;106621;1271;24252;-57
2023/01/16 19:29:35;;;;;;;16.50;7.10;;;;;;;10.49;70.10;101092.14;107061;1269;25464;-57
2023/01/16 19:32:04;;;;;;;10.40;6.50;;;;;;;10.50;70.11;101089.90;106702;1274;25482;-57
2023/01/16 19:34:35;;;;;;;16.20;7.30;;;;;;;10.50;70.08;101086.05;106826;1267;24344;-57
2023/01/16 19:37:05;;;;;;;18.10;7.00;;;;;;;10.51;70.14;101086.92;106756;1267;22523;-57
2023/01/16 19:39:33;;;;;;;11.90;6.80;;;;;;;10.52;69.96;101088.99;106576;1267;25407;-58
2023/01/16 19:47:32;;;;;;;17.40;7.90;;;;;;;10.52;69.90;101078.58;107102;1267;25427;-57
2023/01/16 19:50:00;;;;;;;16.00;7.20;;;;;;;10.53;69.89;101078.92;107011;1271;25492;-57
